sensor_id;sensor_type;location;lat;lon;timestamp;temperature;humidity
28548;DHT22;15750;49.600;8.746;2022-08-01T00:02:10;27.00;44.30
28548;DHT22;15750;49.600;8.746;2022-08-01T00:04:58;27.00;44.40
28548;DHT22;15750;49.600;8.746;2022-08-01T00:07:48;27.00;44.50
28548;DHT22;15750;49.600;8.746;2022-08-01T00:10:36;26.90;44.60
28548;DHT22;15750;49.600;8.746;2022-08-01T00:13:23;26.90;44.60
28548;DHT22;15750;49.600;8.746;2022-08-01T00:16:10;26.90;44.60
28548;DHT22;15750;49.600;8.746;2022-08-01T00:18:57;26.90;44.60
28548;DHT22;15750;49.600;8.746;2022-08-01T00:21:45;26.90;44.60
28548;DHT22;15750;49.600;8.746;2022-08-01T00:24:38;26.90;44.80
28548;DHT22;15750;49.600;8.746;2022-08-01T00:27:25;26.90;44.90
28548;DHT22;15750;49.600;8.746;2022-08-01T00:30:12;26.90;44.80
28548;DHT22;15750;49.600;8.746;2022-08-01T00:32:59;26.90;44.90
28548;DHT22;15750;49.600;8.746;2022-08-01T00:35:46;26.80;44.80
28548;DHT22;15750;49.600;8.746;2022-08-01T00:38:34;26.80;44.80
28548;DHT22;15750;49.600;8.746;2022-08-01T00:41:22;26.80;45.00
28548;DHT22;15750;49.600;8.746;2022-08-01T00:44:10;26.80;45.00
28548;DHT22;15750;49.600;8.746;2022-08-01T00:46:57;26.80;45.20
28548;DHT22;15750;49.600;8.746;2022-08-01T00:49:45;26.80;45.20
28548;DHT22;15750;49.600;8.746;2022-08-01T00:52:33;26.70;45.30
28548;DHT22;15750;49.600;8.746;2022-08-01T00:55:21;26.70;45.30
28548;DHT22;15750;49.600;8.746;2022-08-01T00:58:10;26.70;45.30
28548;DHT22;15750;49.600;8.746;2022-08-01T01:00:57;26.70;45.50
28548;DHT22;15750;49.600;8.746;2022-08-01T01:03:48;26.70;45.50
28548;DHT22;15750;49.600;8.746;2022-08-01T01:06:53;26.70;45.60
28548;DHT22;15750;49.600;8.746;2022-08-01T01:09:49;26.60;46.00
28548;DHT22;15750;49.600;8.746;2022-08-01T01:12:42;26.60;46.00
28548;DHT22;15750;49.600;8.746;2022-08-01T01:15:40;26.60;46.20
28548;DHT22;15750;49.600;8.746;2022-08-01T01:18:35;26.60;46.30
28548;DHT22;15750;49.600;8.746;2022-08-01T01:21:47;26.60;46.30
28548;DHT22;15750;49.600;8.746;2022-08-01T01:25:02;26.60;46.40
28548;DHT22;15750;49.600;8.746;2022-08-01T01:28:03;26.60;46.50
28548;DHT22;15750;49.600;8.746;2022-08-01T01:30:57;26.60;46.40
28548;DHT22;15750;49.600;8.746;2022-08-01T01:33:45;26.60;46.40
28548;DHT22;15750;49.600;8.746;2022-08-01T01:36:34;26.60;46.50
28548;DHT22;15750;49.600;8.746;2022-08-01T01:39:25;26.60;46.60
28548;DHT22;15750;49.600;8.746;2022-08-01T01:42:13;26.60;46.80
28548;DHT22;15750;49.600;8.746;2022-08-01T01:45:05;26.60;46.70
28548;DHT22;15750;49.600;8.746;2022-08-01T01:47:55;26.60;46.80
28548;DHT22;15750;49.600;8.746;2022-08-01T01:50:46;26.60;46.80
28548;DHT22;15750;49.600;8.746;2022-08-01T01:53:35;26.60;47.00
28548;DHT22;15750;49.600;8.746;2022-08-01T01:56:23;26.60;47.00
28548;DHT22;15750;49.600;8.746;2022-08-01T01:59:11;26.60;47.20
28548;DHT22;15750;49.600;8.746;2022-08-01T02:02:07;26.60;47.20
28548;DHT22;15750;49.600;8.746;2022-08-01T02:04:58;26.60;47.90
28548;DHT22;15750;49.600;8.746;2022-08-01T02:07:47;26.60;47.30
28548;DHT22;15750;49.600;8.746;2022-08-01T02:10:36;26.60;47.20
28548;DHT22;15750;49.600;8.746;2022-08-01T02:13:24;26.60;47.10
28548;DHT22;15750;49.600;8.746;2022-08-01T02:16:12;26.50;47.00
28548;DHT22;15750;49.600;8.746;2022-08-01T02:19:00;26.60;47.10
28548;DHT22;15750;49.600;8.746;2022-08-01T02:21:51;26.50;47.00
28548;DHT22;15750;49.600;8.746;2022-08-01T02:24:50;26.50;47.30
28548;DHT22;15750;49.600;8.746;2022-08-01T02:27:43;26.50;47.40
28548;DHT22;15750;49.600;8.746;2022-08-01T02:30:35;26.50;47.70
28548;DHT22;15750;49.600;8.746;2022-08-01T02:33:29;26.50;47.50
28548;DHT22;15750;49.600;8.746;2022-08-01T02:36:26;26.50;47.80
28548;DHT22;15750;49.600;8.746;2022-08-01T02:39:21;26.50;47.90
28548;DHT22;15750;49.600;8.746;2022-08-01T02:42:11;26.50;48.00
28548;DHT22;15750;49.600;8.746;2022-08-01T02:45:00;26.50;48.10
28548;DHT22;15750;49.600;8.746;2022-08-01T02:47:50;26.40;48.00
28548;DHT22;15750;49.600;8.746;2022-08-01T02:50:40;26.50;48.00
28548;DHT22;15750;49.600;8.746;2022-08-01T02:53:32;26.40;48.10
28548;DHT22;15750;49.600;8.746;2022-08-01T02:56:32;26.40;48.10
28548;DHT22;15750;49.600;8.746;2022-08-01T02:59:23;26.40;48.40
28548;DHT22;15750;49.600;8.746;2022-08-01T03:02:12;26.40;48.10
28548;DHT22;15750;49.600;8.746;2022-08-01T03:05:01;26.40;48.20
28548;DHT22;15750;49.600;8.746;2022-08-01T03:07:49;26.40;48.40
28548;DHT22;15750;49.600;8.746;2022-08-01T03:10:40;26.40;48.50
28548;DHT22;15750;49.600;8.746;2022-08-01T03:13:29;26.40;48.60
28548;DHT22;15750;49.600;8.746;2022-08-01T03:16:18;26.40;48.60
28548;DHT22;15750;49.600;8.746;2022-08-01T03:19:09;26.40;48.50
28548;DHT22;15750;49.600;8.746;2022-08-01T03:21:59;26.40;48.60
28548;DHT22;15750;49.600;8.746;2022-08-01T03:24:52;26.40;48.60
28548;DHT22;15750;49.600;8.746;2022-08-01T03:27:40;26.40;48.70
28548;DHT22;15750;49.600;8.746;2022-08-01T03:30:31;26.50;48.70
28548;DHT22;15750;49.600;8.746;2022-08-01T03:33:19;26.50;48.80
28548;DHT22;15750;49.600;8.746;2022-08-01T03:36:09;26.50;48.80
28548;DHT22;15750;49.600;8.746;2022-08-01T03:38:59;26.50;49.00
28548;DHT22;15750;49.600;8.746;2022-08-01T03:41:51;26.50;48.80
28548;DHT22;15750;49.600;8.746;2022-08-01T03:44:48;26.50;48.90
28548;DHT22;15750;49.600;8.746;2022-08-01T03:47:42;26.40;48.90
28548;DHT22;15750;49.600;8.746;2022-08-01T03:50:33;26.40;48.90
28548;DHT22;15750;49.600;8.746;2022-08-01T03:53:23;26.40;48.90
28548;DHT22;15750;49.600;8.746;2022-08-01T03:56:14;26.40;49.10
28548;DHT22;15750;49.600;8.746;2022-08-01T03:59:06;26.40;48.90
28548;DHT22;15750;49.600;8.746;2022-08-01T04:01:54;26.40;49.00
28548;DHT22;15750;49.600;8.746;2022-08-01T04:04:44;26.30;49.00
28548;DHT22;15750;49.600;8.746;2022-08-01T04:07:33;26.30;49.30
28548;DHT22;15750;49.600;8.746;2022-08-01T04:10:22;26.30;49.30
28548;DHT22;15750;49.600;8.746;2022-08-01T04:13:09;26.30;49.30
28548;DHT22;15750;49.600;8.746;2022-08-01T04:15:56;26.30;49.20
28548;DHT22;15750;49.600;8.746;2022-08-01T04:18:44;26.30;49.20
28548;DHT22;15750;49.600;8.746;2022-08-01T04:21:32;26.30;49.30
28548;DHT22;15750;49.600;8.746;2022-08-01T04:24:22;26.30;50.00
28548;DHT22;15750;49.600;8.746;2022-08-01T04:27:15;26.40;49.30
28548;DHT22;15750;49.600;8.746;2022-08-01T04:30:27;26.40;49.30
28548;DHT22;15750;49.600;8.746;2022-08-01T04:33:17;26.40;49.20
28548;DHT22;15750;49.600;8.746;2022-08-01T04:36:06;26.40;49.10
28548;DHT22;15750;49.600;8.746;2022-08-01T04:39:00;26.40;49.10
28548;DHT22;15750;49.600;8.746;2022-08-01T04:41:48;26.40;49.40
28548;DHT22;15750;49.600;8.746;2022-08-01T04:44:36;26.40;49.40
28548;DHT22;15750;49.600;8.746;2022-08-01T04:47:25;26.40;49.50
28548;DHT22;15750;49.600;8.746;2022-08-01T04:50:13;26.40;49.50
28548;DHT22;15750;49.600;8.746;2022-08-01T04:53:01;26.40;49.60
28548;DHT22;15750;49.600;8.746;2022-08-01T04:55:50;26.40;49.70
28548;DHT22;15750;49.600;8.746;2022-08-01T04:58:37;26.30;49.80
28548;DHT22;15750;49.600;8.746;2022-08-01T05:01:25;26.40;49.80
28548;DHT22;15750;49.600;8.746;2022-08-01T05:04:12;26.40;49.90
28548;DHT22;15750;49.600;8.746;2022-08-01T05:07:00;26.40;50.00
28548;DHT22;15750;49.600;8.746;2022-08-01T05:09:47;26.40;50.00
28548;DHT22;15750;49.600;8.746;2022-08-01T05:12:36;26.40;50.00
28548;DHT22;15750;49.600;8.746;2022-08-01T05:15:23;26.40;50.30
28548;DHT22;15750;49.600;8.746;2022-08-01T05:18:12;26.40;50.10
28548;DHT22;15750;49.600;8.746;2022-08-01T05:20:59;26.40;50.00
28548;DHT22;15750;49.600;8.746;2022-08-01T05:23:47;26.40;50.10
28548;DHT22;15750;49.600;8.746;2022-08-01T05:26:35;26.40;50.00
28548;DHT22;15750;49.600;8.746;2022-08-01T05:29:24;26.30;49.90
28548;DHT22;15750;49.600;8.746;2022-08-01T05:32:12;26.40;50.10
28548;DHT22;15750;49.600;8.746;2022-08-01T05:34:59;26.30;50.00
28548;DHT22;15750;49.600;8.746;2022-08-01T05:37:46;26.30;50.20
28548;DHT22;15750;49.600;8.746;2022-08-01T05:40:35;26.30;50.30
28548;DHT22;15750;49.600;8.746;2022-08-01T05:43:23;26.40;50.40
28548;DHT22;15750;49.600;8.746;2022-08-01T05:46:15;26.40;50.50
28548;DHT22;15750;49.600;8.746;2022-08-01T05:49:04;26.40;50.80
28548;DHT22;15750;49.600;8.746;2022-08-01T05:51:51;26.40;50.90
28548;DHT22;15750;49.600;8.746;2022-08-01T05:54:39;26.40;50.80
28548;DHT22;15750;49.600;8.746;2022-08-01T05:57:27;26.40;50.80
28548;DHT22;15750;49.600;8.746;2022-08-01T06:00:14;26.40;50.80
28548;DHT22;15750;49.600;8.746;2022-08-01T06:03:03;26.40;50.90
28548;DHT22;15750;49.600;8.746;2022-08-01T06:05:51;26.40;51.20
28548;DHT22;15750;49.600;8.746;2022-08-01T06:08:39;26.40;51.10
28548;DHT22;15750;49.600;8.746;2022-08-01T06:11:27;26.40;51.20
28548;DHT22;15750;49.600;8.746;2022-08-01T06:14:14;26.50;51.20
28548;DHT22;15750;49.600;8.746;2022-08-01T06:17:01;26.50;51.30
28548;DHT22;15750;49.600;8.746;2022-08-01T06:19:50;26.50;51.40
28548;DHT22;15750;49.600;8.746;2022-08-01T06:22:37;26.50;51.50
28548;DHT22;15750;49.600;8.746;2022-08-01T06:25:25;26.50;51.30
28548;DHT22;15750;49.600;8.746;2022-08-01T06:28:12;26.50;51.50
28548;DHT22;15750;49.600;8.746;2022-08-01T06:31:00;26.60;51.60
28548;DHT22;15750;49.600;8.746;2022-08-01T06:33:47;26.60;51.60
28548;DHT22;15750;49.600;8.746;2022-08-01T06:36:36;26.60;51.50
28548;DHT22;15750;49.600;8.746;2022-08-01T06:39:23;26.60;51.70
28548;DHT22;15750;49.600;8.746;2022-08-01T06:42:10;26.60;51.50
28548;DHT22;15750;49.600;8.746;2022-08-01T06:44:58;26.70;51.50
28548;DHT22;15750;49.600;8.746;2022-08-01T06:47:46;26.70;51.60
28548;DHT22;15750;49.600;8.746;2022-08-01T06:50:35;26.70;51.60
28548;DHT22;15750;49.600;8.746;2022-08-01T06:53:23;26.70;52.10
28548;DHT22;15750;49.600;8.746;2022-08-01T06:56:11;26.70;51.50
28548;DHT22;15750;49.600;8.746;2022-08-01T06:58:58;26.80;51.40
28548;DHT22;15750;49.600;8.746;2022-08-01T07:01:46;26.80;51.40
28548;DHT22;15750;49.600;8.746;2022-08-01T07:04:33;26.80;51.30
28548;DHT22;15750;49.600;8.746;2022-08-01T07:07:21;26.80;51.40
28548;DHT22;15750;49.600;8.746;2022-08-01T07:10:11;26.80;51.40
28548;DHT22;15750;49.600;8.746;2022-08-01T07:12:58;26.80;51.50
28548;DHT22;15750;49.600;8.746;2022-08-01T07:15:46;26.90;51.50
28548;DHT22;15750;49.600;8.746;2022-08-01T07:18:33;26.90;51.50
28548;DHT22;15750;49.600;8.746;2022-08-01T07:21:21;26.90;51.30
28548;DHT22;15750;49.600;8.746;2022-08-01T07:24:30;26.90;51.30
28548;DHT22;15750;49.600;8.746;2022-08-01T07:27:23;27.00;51.40
28548;DHT22;15750;49.600;8.746;2022-08-01T07:30:11;27.00;51.30
28548;DHT22;15750;49.600;8.746;2022-08-01T07:32:59;27.00;51.20
28548;DHT22;15750;49.600;8.746;2022-08-01T07:35:47;27.10;51.20
28548;DHT22;15750;49.600;8.746;2022-08-01T07:38:34;27.10;51.10
28548;DHT22;15750;49.600;8.746;2022-08-01T07:41:21;27.10;51.30
28548;DHT22;15750;49.600;8.746;2022-08-01T07:44:30;27.10;51.30
28548;DHT22;15750;49.600;8.746;2022-08-01T07:47:23;27.10;51.20
28548;DHT22;15750;49.600;8.746;2022-08-01T07:50:11;27.10;51.40
28548;DHT22;15750;49.600;8.746;2022-08-01T07:52:59;27.20;51.30
28548;DHT22;15750;49.600;8.746;2022-08-01T07:55:46;27.20;51.30
28548;DHT22;15750;49.600;8.746;2022-08-01T07:58:34;27.20;51.10
28548;DHT22;15750;49.600;8.746;2022-08-01T08:01:23;27.20;51.10
28548;DHT22;15750;49.600;8.746;2022-08-01T08:04:11;27.20;51.10
28548;DHT22;15750;49.600;8.746;2022-08-01T08:06:58;27.30;51.30
28548;DHT22;15750;49.600;8.746;2022-08-01T08:09:45;27.30;51.40
28548;DHT22;15750;49.600;8.746;2022-08-01T08:12:36;27.30;51.30
28548;DHT22;15750;49.600;8.746;2022-08-01T08:15:24;27.30;51.40
28548;DHT22;15750;49.600;8.746;2022-08-01T08:18:12;27.30;51.20
28548;DHT22;15750;49.600;8.746;2022-08-01T08:21:00;27.30;51.10
28548;DHT22;15750;49.600;8.746;2022-08-01T08:23:51;27.40;51.20
28548;DHT22;15750;49.600;8.746;2022-08-01T08:26:58;27.40;51.20
28548;DHT22;15750;49.600;8.746;2022-08-01T08:29:46;27.40;50.90
28548;DHT22;15750;49.600;8.746;2022-08-01T08:32:33;27.40;51.00
28548;DHT22;15750;49.600;8.746;2022-08-01T08:35:22;27.40;51.00
28548;DHT22;15750;49.600;8.746;2022-08-01T08:38:30;27.40;50.80
28548;DHT22;15750;49.600;8.746;2022-08-01T08:41:18;27.50;51.20
28548;DHT22;15750;49.600;8.746;2022-08-01T08:44:07;27.50;50.90
28548;DHT22;15750;49.600;8.746;2022-08-01T08:46:55;27.50;50.70
28548;DHT22;15750;49.600;8.746;2022-08-01T08:49:44;27.50;50.50
28548;DHT22;15750;49.600;8.746;2022-08-01T08:52:38;27.60;50.40
28548;DHT22;15750;49.600;8.746;2022-08-01T08:55:26;27.60;50.40
28548;DHT22;15750;49.600;8.746;2022-08-01T08:58:15;27.60;50.60
28548;DHT22;15750;49.600;8.746;2022-08-01T09:01:06;27.60;50.20
28548;DHT22;15750;49.600;8.746;2022-08-01T09:03:54;27.60;50.00
28548;DHT22;15750;49.600;8.746;2022-08-01T09:06:41;27.60;50.30
28548;DHT22;15750;49.600;8.746;2022-08-01T09:09:30;27.60;50.00
28548;DHT22;15750;49.600;8.746;2022-08-01T09:12:18;27.60;49.80
28548;DHT22;15750;49.600;8.746;2022-08-01T09:15:07;27.60;49.90
28548;DHT22;15750;49.600;8.746;2022-08-01T09:17:54;27.70;49.50
28548;DHT22;15750;49.600;8.746;2022-08-01T09:20:42;27.70;50.10
28548;DHT22;15750;49.600;8.746;2022-08-01T09:23:32;27.70;50.10
28548;DHT22;15750;49.600;8.746;2022-08-01T09:26:28;27.70;50.60
28548;DHT22;15750;49.600;8.746;2022-08-01T09:29:20;27.70;50.40
28548;DHT22;15750;49.600;8.746;2022-08-01T09:32:22;27.70;53.00
28548;DHT22;15750;49.600;8.746;2022-08-01T09:35:24;27.70;53.90
28548;DHT22;15750;49.600;8.746;2022-08-01T09:38:17;27.70;54.40
28548;DHT22;15750;49.600;8.746;2022-08-01T09:41:05;27.70;53.00
28548;DHT22;15750;49.600;8.746;2022-08-01T09:43:55;27.70;52.90
28548;DHT22;15750;49.600;8.746;2022-08-01T09:46:52;27.70;53.90
28548;DHT22;15750;49.600;8.746;2022-08-01T09:49:42;27.70;53.60
28548;DHT22;15750;49.600;8.746;2022-08-01T09:52:36;27.60;53.10
28548;DHT22;15750;49.600;8.746;2022-08-01T09:55:25;27.60;53.80
28548;DHT22;15750;49.600;8.746;2022-08-01T09:58:13;27.60;53.80
28548;DHT22;15750;49.600;8.746;2022-08-01T10:01:03;27.60;53.90
28548;DHT22;15750;49.600;8.746;2022-08-01T10:04:12;27.60;53.70
28548;DHT22;15750;49.600;8.746;2022-08-01T10:07:06;27.70;53.50
28548;DHT22;15750;49.600;8.746;2022-08-01T10:09:54;27.70;53.20
28548;DHT22;15750;49.600;8.746;2022-08-01T10:12:42;27.70;52.50
28548;DHT22;15750;49.600;8.746;2022-08-01T10:15:32;27.70;52.40
28548;DHT22;15750;49.600;8.746;2022-08-01T10:18:24;27.70;52.20
28548;DHT22;15750;49.600;8.746;2022-08-01T10:21:11;27.70;52.20
28548;DHT22;15750;49.600;8.746;2022-08-01T10:24:01;27.80;52.10
28548;DHT22;15750;49.600;8.746;2022-08-01T10:26:51;27.80;52.20
28548;DHT22;15750;49.600;8.746;2022-08-01T10:29:42;27.80;52.20
28548;DHT22;15750;49.600;8.746;2022-08-01T10:32:52;27.90;51.80
28548;DHT22;15750;49.600;8.746;2022-08-01T10:35:41;28.00;52.30
28548;DHT22;15750;49.600;8.746;2022-08-01T10:38:33;28.10;52.20
28548;DHT22;15750;49.600;8.746;2022-08-01T10:41:22;28.30;52.20
28548;DHT22;15750;49.600;8.746;2022-08-01T10:44:12;28.40;52.10
28548;DHT22;15750;49.600;8.746;2022-08-01T10:47:03;28.50;51.80
28548;DHT22;15750;49.600;8.746;2022-08-01T10:50:01;28.60;51.60
28548;DHT22;15750;49.600;8.746;2022-08-01T10:53:07;28.80;51.40
28548;DHT22;15750;49.600;8.746;2022-08-01T10:56:03;28.90;50.90
28548;DHT22;15750;49.600;8.746;2022-08-01T10:59:01;28.90;50.70
28548;DHT22;15750;49.600;8.746;2022-08-01T11:01:57;28.90;50.00
28548;DHT22;15750;49.600;8.746;2022-08-01T11:04:51;29.00;50.00
28548;DHT22;15750;49.600;8.746;2022-08-01T11:07:45;29.00;49.70
28548;DHT22;15750;49.600;8.746;2022-08-01T11:10:38;29.00;49.80
28548;DHT22;15750;49.600;8.746;2022-08-01T11:14:00;28.90;49.30
28548;DHT22;15750;49.600;8.746;2022-08-01T11:16:47;28.90;49.50
28548;DHT22;15750;49.600;8.746;2022-08-01T11:20:05;28.90;49.40
28548;DHT22;15750;49.600;8.746;2022-08-01T11:23:24;28.90;49.30
28548;DHT22;15750;49.600;8.746;2022-08-01T11:26:15;28.80;49.30
28548;DHT22;15750;49.600;8.746;2022-08-01T11:29:18;28.80;49.20
28548;DHT22;15750;49.600;8.746;2022-08-01T11:32:25;28.70;49.00
28548;DHT22;15750;49.600;8.746;2022-08-01T11:35:13;28.70;49.00
28548;DHT22;15750;49.600;8.746;2022-08-01T11:38:22;28.70;49.10
28548;DHT22;15750;49.600;8.746;2022-08-01T11:41:10;28.60;49.00
28548;DHT22;15750;49.600;8.746;2022-08-01T11:44:01;28.60;49.20
28548;DHT22;15750;49.600;8.746;2022-08-01T11:46:52;28.60;49.30
28548;DHT22;15750;49.600;8.746;2022-08-01T11:49:49;28.60;49.70
28548;DHT22;15750;49.600;8.746;2022-08-01T11:52:41;28.50;49.20
28548;DHT22;15750;49.600;8.746;2022-08-01T11:55:32;28.50;49.50
28548;DHT22;15750;49.600;8.746;2022-08-01T11:58:22;28.60;49.70
28548;DHT22;15750;49.600;8.746;2022-08-01T12:01:18;28.50;49.30
28548;DHT22;15750;49.600;8.746;2022-08-01T12:04:06;28.50;49.40
28548;DHT22;15750;49.600;8.746;2022-08-01T12:06:54;28.50;49.50
28548;DHT22;15750;49.600;8.746;2022-08-01T12:09:41;28.60;49.40
28548;DHT22;15750;49.600;8.746;2022-08-01T12:12:30;28.60;49.60
28548;DHT22;15750;49.600;8.746;2022-08-01T12:15:19;28.60;49.70
28548;DHT22;15750;49.600;8.746;2022-08-01T12:18:08;28.60;49.70
28548;DHT22;15750;49.600;8.746;2022-08-01T12:21:02;28.60;49.80
28548;DHT22;15750;49.600;8.746;2022-08-01T12:24:00;28.60;50.00
28548;DHT22;15750;49.600;8.746;2022-08-01T12:26:48;28.60;49.30
28548;DHT22;15750;49.600;8.746;2022-08-01T12:29:37;28.70;49.50
28548;DHT22;15750;49.600;8.746;2022-08-01T12:32:28;28.70;49.30
28548;DHT22;15750;49.600;8.746;2022-08-01T12:35:23;28.70;49.50
28548;DHT22;15750;49.600;8.746;2022-08-01T12:38:15;28.70;49.40
28548;DHT22;15750;49.600;8.746;2022-08-01T12:41:04;28.70;49.30
28548;DHT22;15750;49.600;8.746;2022-08-01T12:43:57;28.80;49.30
28548;DHT22;15750;49.600;8.746;2022-08-01T12:46:44;28.80;49.10
28548;DHT22;15750;49.600;8.746;2022-08-01T12:49:32;28.80;49.10
28548;DHT22;15750;49.600;8.746;2022-08-01T12:52:21;28.80;49.30
28548;DHT22;15750;49.600;8.746;2022-08-01T12:55:14;28.80;49.30
28548;DHT22;15750;49.600;8.746;2022-08-01T12:58:05;28.90;49.30
28548;DHT22;15750;49.600;8.746;2022-08-01T13:01:04;28.90;49.00
28548;DHT22;15750;49.600;8.746;2022-08-01T13:04:00;28.90;49.10
28548;DHT22;15750;49.600;8.746;2022-08-01T13:06:53;28.90;48.80
28548;DHT22;15750;49.600;8.746;2022-08-01T13:09:50;28.90;48.70
28548;DHT22;15750;49.600;8.746;2022-08-01T13:12:39;28.90;48.80
28548;DHT22;15750;49.600;8.746;2022-08-01T13:15:28;28.90;48.30
28548;DHT22;15750;49.600;8.746;2022-08-01T13:18:25;28.90;48.40
28548;DHT22;15750;49.600;8.746;2022-08-01T13:21:16;28.90;47.90
28548;DHT22;15750;49.600;8.746;2022-08-01T13:24:06;29.00;48.50
28548;DHT22;15750;49.600;8.746;2022-08-01T13:26:58;29.00;48.50
28548;DHT22;15750;49.600;8.746;2022-08-01T13:29:48;29.00;48.60
28548;DHT22;15750;49.600;8.746;2022-08-01T13:32:38;29.00;48.40
28548;DHT22;15750;49.600;8.746;2022-08-01T13:35:26;29.00;48.60
28548;DHT22;15750;49.600;8.746;2022-08-01T13:38:14;29.00;48.60
28548;DHT22;15750;49.600;8.746;2022-08-01T13:41:01;29.00;48.60
28548;DHT22;15750;49.600;8.746;2022-08-01T13:43:50;29.00;48.60
28548;DHT22;15750;49.600;8.746;2022-08-01T13:46:44;29.00;48.40
28548;DHT22;15750;49.600;8.746;2022-08-01T13:49:36;29.00;48.40
28548;DHT22;15750;49.600;8.746;2022-08-01T13:52:25;29.00;48.10
28548;DHT22;15750;49.600;8.746;2022-08-01T13:55:13;29.00;47.90
28548;DHT22;15750;49.600;8.746;2022-08-01T13:58:00;29.00;47.80
28548;DHT22;15750;49.600;8.746;2022-08-01T14:00:49;29.00;48.20
28548;DHT22;15750;49.600;8.746;2022-08-01T14:03:37;29.00;48.00
28548;DHT22;15750;49.600;8.746;2022-08-01T14:06:24;29.00;48.00
28548;DHT22;15750;49.600;8.746;2022-08-01T14:09:11;29.00;48.00
28548;DHT22;15750;49.600;8.746;2022-08-01T14:12:03;29.00;48.00
28548;DHT22;15750;49.600;8.746;2022-08-01T14:14:52;29.00;47.80
28548;DHT22;15750;49.600;8.746;2022-08-01T14:17:41;29.00;48.40
28548;DHT22;15750;49.600;8.746;2022-08-01T14:20:32;29.00;47.80
28548;DHT22;15750;49.600;8.746;2022-08-01T14:23:20;29.00;47.40
28548;DHT22;15750;49.600;8.746;2022-08-01T14:26:07;28.90;47.40
28548;DHT22;15750;49.600;8.746;2022-08-01T14:28:57;29.00;47.80
28548;DHT22;15750;49.600;8.746;2022-08-01T14:31:44;28.90;47.40
28548;DHT22;15750;49.600;8.746;2022-08-01T14:34:33;28.90;47.00
28548;DHT22;15750;49.600;8.746;2022-08-01T14:37:20;29.00;47.30
28548;DHT22;15750;49.600;8.746;2022-08-01T14:40:13;28.90;47.40
28548;DHT22;15750;49.600;8.746;2022-08-01T14:43:04;29.00;47.40
28548;DHT22;15750;49.600;8.746;2022-08-01T14:46:09;29.00;47.40
28548;DHT22;15750;49.600;8.746;2022-08-01T14:48:58;29.00;47.40
28548;DHT22;15750;49.600;8.746;2022-08-01T14:51:47;29.00;47.20
28548;DHT22;15750;49.600;8.746;2022-08-01T14:54:34;29.00;47.30
28548;DHT22;15750;49.600;8.746;2022-08-01T14:57:21;29.00;47.40
28548;DHT22;15750;49.600;8.746;2022-08-01T15:00:10;29.00;47.50
28548;DHT22;15750;49.600;8.746;2022-08-01T15:02:59;28.90;47.50
28548;DHT22;15750;49.600;8.746;2022-08-01T15:05:46;28.90;47.40
28548;DHT22;15750;49.600;8.746;2022-08-01T15:08:35;29.00;47.70
28548;DHT22;15750;49.600;8.746;2022-08-01T15:11:22;29.00;47.60
28548;DHT22;15750;49.600;8.746;2022-08-01T15:14:18;28.90;47.50
28548;DHT22;15750;49.600;8.746;2022-08-01T15:17:24;29.00;47.60
28548;DHT22;15750;49.600;8.746;2022-08-01T15:20:14;29.00;47.60
28548;DHT22;15750;49.600;8.746;2022-08-01T15:23:02;28.90;47.50
28548;DHT22;15750;49.600;8.746;2022-08-01T15:25:50;28.90;47.60
28548;DHT22;15750;49.600;8.746;2022-08-01T15:28:38;28.90;47.50
28548;DHT22;15750;49.600;8.746;2022-08-01T15:31:25;28.90;47.50
28548;DHT22;15750;49.600;8.746;2022-08-01T15:34:13;28.90;47.40
28548;DHT22;15750;49.600;8.746;2022-08-01T15:37:01;28.90;47.40
28548;DHT22;15750;49.600;8.746;2022-08-01T15:39:48;28.90;47.30
28548;DHT22;15750;49.600;8.746;2022-08-01T15:42:42;28.90;47.20
28548;DHT22;15750;49.600;8.746;2022-08-01T15:45:32;28.90;47.20
28548;DHT22;15750;49.600;8.746;2022-08-01T15:48:36;28.80;47.30
28548;DHT22;15750;49.600;8.746;2022-08-01T15:51:24;28.90;47.20
28548;DHT22;15750;49.600;8.746;2022-08-01T15:54:12;28.90;47.30
28548;DHT22;15750;49.600;8.746;2022-08-01T15:56:59;28.80;47.20
28548;DHT22;15750;49.600;8.746;2022-08-01T15:59:48;28.80;47.20
28548;DHT22;15750;49.600;8.746;2022-08-01T16:02:35;28.80;47.10
28548;DHT22;15750;49.600;8.746;2022-08-01T16:05:22;28.80;47.10
28548;DHT22;15750;49.600;8.746;2022-08-01T16:08:10;28.80;47.10
28548;DHT22;15750;49.600;8.746;2022-08-01T16:10:58;28.80;47.20
28548;DHT22;15750;49.600;8.746;2022-08-01T16:13:45;28.80;47.10
28548;DHT22;15750;49.600;8.746;2022-08-01T16:16:35;28.80;47.00
28548;DHT22;15750;49.600;8.746;2022-08-01T16:19:22;28.80;46.70
28548;DHT22;15750;49.600;8.746;2022-08-01T16:22:10;28.70;46.70
28548;DHT22;15750;49.600;8.746;2022-08-01T16:24:57;28.70;46.60
28548;DHT22;15750;49.600;8.746;2022-08-01T16:27:46;28.80;46.80
28548;DHT22;15750;49.600;8.746;2022-08-01T16:30:33;28.70;46.80
28548;DHT22;15750;49.600;8.746;2022-08-01T16:33:22;28.70;46.80
28548;DHT22;15750;49.600;8.746;2022-08-01T16:36:29;28.70;46.80
28548;DHT22;15750;49.600;8.746;2022-08-01T16:39:17;28.70;46.80
28548;DHT22;15750;49.600;8.746;2022-08-01T16:42:08;28.70;46.70
28548;DHT22;15750;49.600;8.746;2022-08-01T16:44:56;28.70;46.70
28548;DHT22;15750;49.600;8.746;2022-08-01T16:47:44;28.70;46.80
28548;DHT22;15750;49.600;8.746;2022-08-01T16:50:32;28.70;46.80
28548;DHT22;15750;49.600;8.746;2022-08-01T16:53:21;28.60;46.70
28548;DHT22;15750;49.600;8.746;2022-08-01T16:56:09;28.70;46.90
28548;DHT22;15750;49.600;8.746;2022-08-01T16:58:56;28.70;46.90
28548;DHT22;15750;49.600;8.746;2022-08-01T17:01:43;28.60;46.80
28548;DHT22;15750;49.600;8.746;2022-08-01T17:04:46;28.60;47.00
28548;DHT22;15750;49.600;8.746;2022-08-01T17:07:35;28.60;47.00
28548;DHT22;15750;49.600;8.746;2022-08-01T17:10:22;28.60;47.00
28548;DHT22;15750;49.600;8.746;2022-08-01T17:13:10;28.60;47.10
28548;DHT22;15750;49.600;8.746;2022-08-01T17:15:57;28.60;47.20
28548;DHT22;15750;49.600;8.746;2022-08-01T17:18:45;28.60;47.30
28548;DHT22;15750;49.600;8.746;2022-08-01T17:21:33;28.60;47.40
28548;DHT22;15750;49.600;8.746;2022-08-01T17:24:27;28.60;47.50
28548;DHT22;15750;49.600;8.746;2022-08-01T17:27:14;28.60;47.40
28548;DHT22;15750;49.600;8.746;2022-08-01T17:30:03;28.60;47.40
28548;DHT22;15750;49.600;8.746;2022-08-01T17:32:51;28.50;47.40
28548;DHT22;15750;49.600;8.746;2022-08-01T17:35:38;28.60;47.40
28548;DHT22;15750;49.600;8.746;2022-08-01T17:38:25;28.60;47.20
28548;DHT22;15750;49.600;8.746;2022-08-01T17:41:14;28.60;47.40
28548;DHT22;15750;49.600;8.746;2022-08-01T17:44:02;28.50;47.30
28548;DHT22;15750;49.600;8.746;2022-08-01T17:46:49;28.50;47.40
28548;DHT22;15750;49.600;8.746;2022-08-01T17:49:36;28.50;47.50
28548;DHT22;15750;49.600;8.746;2022-08-01T17:52:39;28.50;47.40
28548;DHT22;15750;49.600;8.746;2022-08-01T17:55:26;28.50;47.50
28548;DHT22;15750;49.600;8.746;2022-08-01T17:58:35;28.50;47.50